createdAt,value
2022-12-14T00:01:37.045Z,69.11
2022-12-14T00:06:38.604Z,69.11
2022-12-14T00:11:40.700Z,69.30
2022-12-14T00:16:42.390Z,69.06
2022-12-14T00:21:44.033Z,69.37
2022-12-14T00:26:45.609Z,69.16
2022-12-14T00:31:48.842Z,69.61
2022-12-14T00:36:50.558Z,69.53
2022-12-14T00:41:52.004Z,69.75
2022-12-14T00:46:53.610Z,69.60
2022-12-14T00:51:55.051Z,69.66
2022-12-14T00:56:56.503Z,69.65
2022-12-14T01:01:58.064Z,69.52
2022-12-14T01:06:59.642Z,69.19
2022-12-14T01:12:01.065Z,69.39
2022-12-14T01:17:02.540Z,69.50
2022-12-14T01:22:04.015Z,69.35
2022-12-14T01:27:05.440Z,69.34
2022-12-14T01:32:07.001Z,69.04
2022-12-14T01:37:08.436Z,68.50
2022-12-14T01:42:14.319Z,69.12
2022-12-14T01:47:27.982Z,69.21
2022-12-14T01:52:42.862Z,69.24
2022-12-14T01:58:00.168Z,69.55
2022-12-14T02:03:13.661Z,69.47
2022-12-14T02:08:17.352Z,69.76
2022-12-14T02:13:44.796Z,69.52
2022-12-14T02:18:50.188Z,69.34
2022-12-14T02:24:12.783Z,69.65
2022-12-14T02:29:32.790Z,69.20
2022-12-14T02:34:54.136Z,69.12
2022-12-14T02:40:11.279Z,69.08
2022-12-14T02:45:38.657Z,69.48
2022-12-14T02:50:47.341Z,69.75
2022-12-14T02:55:54.156Z,70.04
2022-12-14T03:00:56.759Z,69.78
2022-12-14T03:06:04.425Z,69.56
2022-12-14T03:11:07.011Z,69.88
2022-12-14T03:16:17.240Z,69.56
2022-12-14T03:21:25.063Z,70.13
2022-12-14T03:26:33.877Z,69.25
2022-12-14T03:31:53.713Z,69.41
2022-12-14T03:37:10.583Z,69.31
2022-12-14T03:42:23.440Z,69.70
2022-12-14T03:47:49.501Z,69.79
2022-12-14T03:53:02.971Z,70.03
2022-12-14T03:58:12.852Z,70.39
2022-12-14T04:03:29.612Z,70.52
2022-12-14T04:09:00.770Z,70.71
2022-12-14T04:14:38.804Z,70.55
2022-12-14T04:19:54.814Z,70.82
2022-12-14T04:25:21.768Z,70.33
2022-12-14T04:30:23.628Z,69.98
2022-12-14T04:35:30.881Z,69.97
2022-12-14T04:40:38.287Z,70.30
2022-12-14T04:45:52.416Z,70.53
2022-12-14T04:51:18.299Z,70.77
2022-12-14T04:56:25.046Z,70.68
2022-12-14T05:01:41.526Z,70.79
2022-12-14T05:06:57.870Z,70.94
2022-12-14T05:12:13.353Z,70.85
2022-12-14T05:17:15.881Z,70.64
2022-12-14T05:22:17.918Z,70.56
2022-12-14T05:27:19.367Z,70.46
2022-12-14T05:32:20.796Z,70.31
2022-12-14T05:37:22.277Z,70.20
2022-12-14T05:42:23.840Z,70.29
2022-12-14T05:47:26.389Z,70.44
2022-12-14T05:52:27.931Z,70.28
2022-12-14T05:57:30.390Z,69.92
2022-12-14T06:02:31.914Z,70.08
2022-12-14T06:07:33.424Z,70.30
2022-12-14T06:12:34.875Z,69.98
2022-12-14T06:17:36.307Z,70.38
2022-12-14T06:22:42.791Z,70.76
2022-12-14T06:27:47.169Z,70.85
2022-12-14T06:32:48.579Z,71.17
2022-12-14T06:37:50.064Z,71.05
2022-12-14T06:42:51.478Z,70.94
2022-12-14T06:47:52.913Z,70.66
2022-12-14T06:52:57.580Z,70.93
2022-12-14T06:57:59.288Z,71.11
2022-12-14T07:03:00.782Z,70.74
2022-12-14T07:08:03.341Z,71.01
2022-12-14T07:13:04.792Z,71.05
2022-12-14T07:18:06.227Z,70.82
2022-12-14T07:23:07.735Z,71.05
2022-12-14T07:28:09.156Z,70.79
2022-12-14T07:33:10.609Z,70.81
2022-12-14T07:38:12.080Z,70.60
2022-12-14T07:43:13.523Z,70.35
2022-12-14T07:48:14.999Z,70.19
2022-12-14T07:53:16.987Z,70.18
2022-12-14T07:58:18.433Z,70.94
2022-12-14T08:03:19.852Z,70.80
2022-12-14T08:08:21.256Z,70.58
2022-12-14T08:13:22.708Z,70.70
2022-12-14T08:18:24.332Z,70.80
2022-12-14T08:23:25.784Z,70.86
2022-12-14T08:28:29.485Z,70.86
2022-12-14T08:33:31.552Z,70.64
2022-12-14T08:38:33.322Z,70.81
2022-12-14T08:43:35.276Z,70.53
2022-12-14T08:48:37.100Z,70.54
2022-12-14T08:53:38.840Z,70.30
2022-12-14T08:58:41.485Z,70.42
2022-12-14T09:03:44.689Z,70.34
2022-12-14T09:08:47.225Z,70.46
2022-12-14T09:13:55.190Z,70.18
2022-12-14T09:18:56.696Z,69.21
2022-12-14T09:23:59.796Z,68.70
2022-12-14T09:29:01.733Z,69.90
2022-12-14T09:34:03.943Z,69.41
2022-12-14T09:39:05.371Z,69.83
2022-12-14T09:44:33.934Z,69.23
2022-12-14T09:49:44.933Z,69.15
2022-12-14T09:54:49.789Z,69.11
2022-12-14T09:59:54.448Z,68.96
2022-12-14T10:05:02.969Z,69.43
2022-12-14T10:10:23.989Z,69.20
2022-12-14T10:15:39.963Z,68.42
2022-12-14T10:20:54.359Z,68.99
2022-12-14T10:26:01.151Z,68.20
2022-12-14T10:31:05.940Z,67.49
2022-12-14T10:36:36.037Z,67.54
2022-12-14T10:41:49.512Z,66.41
2022-12-14T10:46:59.252Z,65.40
2022-12-14T10:52:05.727Z,66.15
2022-12-14T10:57:07.169Z,66.28
2022-12-14T11:02:15.841Z,67.20
2022-12-14T11:07:20.533Z,65.79
2022-12-14T11:12:26.539Z,65.91
2022-12-14T11:17:37.100Z,64.50
2022-12-14T11:22:51.166Z,65.79
2022-12-14T11:27:52.919Z,65.00
2022-12-14T11:32:55.306Z,65.87
2022-12-14T11:38:00.472Z,65.18
2022-12-14T11:43:04.607Z,66.25
2022-12-14T11:48:15.318Z,65.67
2022-12-14T11:53:19.612Z,65.81
2022-12-14T11:58:34.650Z,65.71
2022-12-14T12:03:45.447Z,65.79
2022-12-14T12:08:53.606Z,65.84
2022-12-14T12:14:07.132Z,66.10
2022-12-14T12:19:14.767Z,67.16
2022-12-14T12:24:41.606Z,67.23
2022-12-14T12:30:13.845Z,67.56
2022-12-14T12:35:24.639Z,66.64
2022-12-14T12:40:37.888Z,67.61
2022-12-14T12:45:43.044Z,67.39
2022-12-14T12:50:49.735Z,67.38
2022-12-14T12:55:56.086Z,67.30
2022-12-14T13:01:01.917Z,67.11
2022-12-14T13:06:27.783Z,67.21
2022-12-14T13:11:35.841Z,67.33
2022-12-14T13:16:38.936Z,66.88
2022-12-14T13:21:47.964Z,67.49
2022-12-14T13:27:15.477Z,66.61
2022-12-14T13:32:45.887Z,66.73
2022-12-14T13:38:29.269Z,66.39
2022-12-14T13:43:51.174Z,66.78
2022-12-14T13:49:05.225Z,66.74
2022-12-14T13:54:18.201Z,66.54
2022-12-14T13:59:32.964Z,66.52
2022-12-14T14:04:36.398Z,66.28
2022-12-14T14:09:37.750Z,66.27
2022-12-14T14:15:08.102Z,66.50
2022-12-14T14:20:39.331Z,66.30
2022-12-14T14:25:51.816Z,66.34
2022-12-14T14:30:56.692Z,66.16
2022-12-14T14:36:08.814Z,66.54
2022-12-14T14:41:17.045Z,66.71
2022-12-14T14:46:23.403Z,66.90
2022-12-14T14:51:28.452Z,66.34
2022-12-14T14:56:29.816Z,66.50
2022-12-14T15:01:31.367Z,66.89
2022-12-14T15:06:39.831Z,67.24
2022-12-14T15:11:50.808Z,67.20
2022-12-14T15:16:52.933Z,67.81
2022-12-14T15:21:59.081Z,67.13
2022-12-14T15:27:09.924Z,67.30
2022-12-14T15:32:16.187Z,67.92
2022-12-14T15:37:46.691Z,67.51
2022-12-14T15:42:56.881Z,68.13
2022-12-14T15:48:23.066Z,68.00
2022-12-14T15:53:38.044Z,68.09
2022-12-14T15:58:40.916Z,67.97
2022-12-14T16:03:46.229Z,68.27
2022-12-14T16:08:55.072Z,68.30
2022-12-14T16:13:58.549Z,68.50
2022-12-14T16:19:20.260Z,68.15
2022-12-14T16:24:24.911Z,68.66
2022-12-14T16:29:33.407Z,67.88
2022-12-14T16:34:34.973Z,67.98
2022-12-14T16:39:45.717Z,68.05
2022-12-14T16:44:48.810Z,68.07
2022-12-14T16:49:50.734Z,68.01
2022-12-14T16:55:26.335Z,67.86
2022-12-14T17:00:37.771Z,68.10
2022-12-14T17:05:41.929Z,67.78
2022-12-14T17:10:43.362Z,68.59
2022-12-14T17:15:53.619Z,68.65
2022-12-14T17:20:55.419Z,68.03
2022-12-14T17:25:57.472Z,68.61
2022-12-14T17:31:01.658Z,68.19
2022-12-14T17:36:03.314Z,68.72
2022-12-14T17:41:06.266Z,68.87
2022-12-14T17:46:07.725Z,68.90
2022-12-14T17:51:17.374Z,69.12
2022-12-14T17:56:18.782Z,69.48
2022-12-14T18:01:25.041Z,69.68
2022-12-14T18:06:26.543Z,70.56
2022-12-14T18:11:28.178Z,70.87
2022-12-14T18:16:29.763Z,72.07
2022-12-14T18:21:31.284Z,72.82
2022-12-14T18:26:32.705Z,73.12
2022-12-14T18:31:37.476Z,73.91
2022-12-14T18:36:39.499Z,74.09
2022-12-14T18:41:40.912Z,74.56
2022-12-14T18:46:42.434Z,74.62
2022-12-14T18:51:44.075Z,75.13
2022-12-14T18:56:45.582Z,75.54
2022-12-14T19:01:51.195Z,75.87
2022-12-14T19:06:52.754Z,76.63
2022-12-14T19:11:54.181Z,76.94
2022-12-14T19:16:55.640Z,77.26
2022-12-14T19:21:57.101Z,77.38
2022-12-14T19:26:59.419Z,77.80
2022-12-14T19:32:05.367Z,77.55
2022-12-14T19:37:07.395Z,78.43
2022-12-14T19:42:08.808Z,77.91
2022-12-14T19:47:10.620Z,78.45
2022-12-14T19:52:12.092Z,78.23
2022-12-14T19:57:13.524Z,78.86
2022-12-14T20:02:15.698Z,78.70
2022-12-14T20:07:17.319Z,78.95
2022-12-14T20:12:18.793Z,78.74
2022-12-14T20:17:20.272Z,79.13
2022-12-14T20:22:21.741Z,78.85
2022-12-14T20:27:23.200Z,79.29
2022-12-14T20:32:24.621Z,78.54
2022-12-14T20:37:26.060Z,78.81
2022-12-14T20:42:27.573Z,78.94
2022-12-14T20:47:28.978Z,79.29
2022-12-14T20:52:30.408Z,79.84
2022-12-14T20:57:33.184Z,79.51
2022-12-14T21:02:34.769Z,79.27
2022-12-14T21:07:38.265Z,79.69
2022-12-14T21:12:39.681Z,79.25
2022-12-14T21:17:41.118Z,79.45
2022-12-14T21:22:42.579Z,79.49
2022-12-14T21:27:44.063Z,79.71
2022-12-14T21:32:45.480Z,79.23
2022-12-14T21:37:47.017Z,79.36
2022-12-14T21:42:49.440Z,79.44
2022-12-14T21:47:50.856Z,79.70
2022-12-14T21:52:52.286Z,80.15
2022-12-14T21:58:12.182Z,79.78
2022-12-14T22:03:13.786Z,79.76
2022-12-14T22:08:15.261Z,80.18
2022-12-14T22:13:16.907Z,79.41
2022-12-14T22:18:18.319Z,79.52
2022-12-14T22:23:20.134Z,79.88
2022-12-14T22:28:21.528Z,80.28
2022-12-14T22:33:22.983Z,79.88
2022-12-14T22:38:25.569Z,80.74
2022-12-14T22:43:30.663Z,80.78
2022-12-14T22:48:36.736Z,80.53
2022-12-14T22:53:38.530Z,80.18
2022-12-14T22:58:43.037Z,80.86
2022-12-14T23:03:52.936Z,80.29
2022-12-14T23:09:13.168Z,81.15
2022-12-14T23:14:33.744Z,80.46
2022-12-14T23:19:53.803Z,81.01
2022-12-14T23:25:13.912Z,80.58
2022-12-14T23:30:34.235Z,80.47
2022-12-14T23:35:54.105Z,80.55
2022-12-14T23:41:18.770Z,81.07
2022-12-14T23:46:38.821Z,80.65
2022-12-14T23:51:58.740Z,81.03
2022-12-14T23:57:18.874Z,80.97
